モントリオール/トルドー の空港の天気 - METARとTAF

モントリオール・ピエール・エリオット・トルドー国際空港 ( CYUL / YUL ) - カナダ ケベック州モントリオール
飛行場実況気象(Metar)
観測時間09/24 21:00 EDT (09/25 01:00 UTC)
風向・風速東北東 4m/s
視程10km以上
天気現象
少しの雲 雲底高度 7320m
気温11℃
湿度47%
気圧1032.7hPa
METARCYUL 250100Z 06008KT 15SM FEW240 11/M00 A3049 RMK CI2 SLP327
過去の天気等 Google飛行場航空写真 Wunderground天気予報

過去48時間のMETAR

飛行場予報(TAF)
発表時間: 9/24 19:38 EDT (9/24 23:38 UTC)
予報対象時間: 24日20時 EDT ~ 25日20時 EDT
風向・風速東北東 5m/s
視程10km以上
少しの雲 雲底高度 5490m
全天の4割程度の雲 雲底高度 7320m
24日23時 EDT ~ 25日1時 EDT に徐々に
風向・風速南東 5m/s
25日7時 EDT から
風向・風速南南東 8m/s
視程10km以上
全天の8割程度の雲 雲底高度 1220m
全天を覆う雲 雲底高度 5490m
25日9時 EDT から
風向・風速南南東 8m/s 瞬間風速 13m/s
視程10km以上
天気現象弱い雨
全天を覆う雲 雲底高度 760m
25日12時 EDT から
風向・風速南南東 8m/s 瞬間風速 13m/s
視程6440m
天気現象弱い雨 もや
全天の8割程度の雲 雲底高度 370m
全天を覆う雲 雲底高度 610m
25日16時 EDT から
風向・風速南南東 8m/s 瞬間風速 13m/s
視程10km以上
天気現象弱いしゅう雨
全天の4割程度の雲 雲底高度 460m
全天を覆う雲 雲底高度 910m
TAF CYUL 242338Z 2500/2524 07010KT P6SM FEW180 SCT240
BECMG 2503/2505 14010KT
FM251100 15015KT P6SM BKN040 OVC180
FM251300 16015G25KT P6SM -RA OVC025
FM251600 16015G25KT 4SM -RA BR BKN012 OVC020
FM252000 16015G25KT P6SM -SHRA SCT015 OVC030 RMK NXT FCST BY 250300Z